sensor_id;sensor_type;location;lat;lon;timestamp;P1;durP1;ratioP1;P2;durP2;ratioP2
75608;SDS011;64194;51.044;13.780;2022-12-26T00:03:11;13.35;;;5.70;;
75608;SDS011;64194;51.044;13.780;2022-12-26T00:07:13;8.65;;;5.18;;
75608;SDS011;64194;51.044;13.780;2022-12-26T00:11:15;10.07;;;5.75;;
75608;SDS011;64194;51.044;13.780;2022-12-26T00:15:17;10.45;;;4.97;;
75608;SDS011;64194;51.044;13.780;2022-12-26T00:19:19;11.30;;;5.10;;
75608;SDS011;64194;51.044;13.780;2022-12-26T00:23:20;10.65;;;5.63;;
75608;SDS011;64194;51.044;13.780;2022-12-26T00:27:22;10.90;;;5.47;;
75608;SDS011;64194;51.044;13.780;2022-12-26T00:31:25;10.77;;;4.75;;
75608;SDS011;64194;51.044;13.780;2022-12-26T00:35:28;11.88;;;6.22;;
75608;SDS011;64194;51.044;13.780;2022-12-26T00:39:30;11.90;;;5.45;;
75608;SDS011;64194;51.044;13.780;2022-12-26T00:43:32;11.63;;;5.35;;
75608;SDS011;64194;51.044;13.780;2022-12-26T00:47:34;14.38;;;6.18;;
75608;SDS011;64194;51.044;13.780;2022-12-26T00:51:35;11.13;;;6.22;;
75608;SDS011;64194;51.044;13.780;2022-12-26T00:55:37;15.27;;;5.85;;
75608;SDS011;64194;51.044;13.780;2022-12-26T00:59:38;11.73;;;5.93;;
75608;SDS011;64194;51.044;13.780;2022-12-26T01:03:41;9.90;;;5.95;;
75608;SDS011;64194;51.044;13.780;2022-12-26T01:07:44;11.75;;;6.68;;
75608;SDS011;64194;51.044;13.780;2022-12-26T01:12:05;11.95;;;6.05;;
75608;SDS011;64194;51.044;13.780;2022-12-26T01:16:07;11.32;;;6.22;;
75608;SDS011;64194;51.044;13.780;2022-12-26T01:20:09;10.73;;;5.20;;
75608;SDS011;64194;51.044;13.780;2022-12-26T01:24:11;11.48;;;5.47;;
75608;SDS011;64194;51.044;13.780;2022-12-26T01:28:14;10.73;;;6.28;;
75608;SDS011;64194;51.044;13.780;2022-12-26T01:32:15;11.15;;;5.90;;
75608;SDS011;64194;51.044;13.780;2022-12-26T01:36:17;12.25;;;6.20;;
75608;SDS011;64194;51.044;13.780;2022-12-26T01:40:19;13.63;;;6.25;;
75608;SDS011;64194;51.044;13.780;2022-12-26T01:48:53;13.48;;;5.75;;
75608;SDS011;64194;51.044;13.780;2022-12-26T01:52:59;13.98;;;6.57;;
75608;SDS011;64194;51.044;13.780;2022-12-26T01:57:07;12.38;;;5.82;;
75608;SDS011;64194;51.044;13.780;2022-12-26T02:01:13;13.55;;;6.35;;
75608;SDS011;64194;51.044;13.780;2022-12-26T02:05:15;12.48;;;6.28;;
75608;SDS011;64194;51.044;13.780;2022-12-26T02:09:35;11.80;;;6.60;;
75608;SDS011;64194;51.044;13.780;2022-12-26T02:13:38;13.02;;;6.45;;
75608;SDS011;64194;51.044;13.780;2022-12-26T02:17:41;11.40;;;5.90;;
75608;SDS011;64194;51.044;13.780;2022-12-26T02:21:52;12.25;;;6.68;;
75608;SDS011;64194;51.044;13.780;2022-12-26T02:26:29;10.95;;;6.00;;
75608;SDS011;64194;51.044;13.780;2022-12-26T02:35:09;11.70;;;6.43;;
75608;SDS011;64194;51.044;13.780;2022-12-26T02:39:25;12.13;;;6.40;;
75608;SDS011;64194;51.044;13.780;2022-12-26T02:49:04;10.25;;;5.18;;
75608;SDS011;64194;51.044;13.780;2022-12-26T02:58:04;11.93;;;5.97;;
75608;SDS011;64194;51.044;13.780;2022-12-26T03:02:34;11.95;;;5.75;;
75608;SDS011;64194;51.044;13.780;2022-12-26T03:06:58;12.95;;;5.80;;
75608;SDS011;64194;51.044;13.780;2022-12-26T03:11:24;11.18;;;5.85;;
75608;SDS011;64194;51.044;13.780;2022-12-26T03:15:57;9.70;;;5.10;;
75608;SDS011;64194;51.044;13.780;2022-12-26T03:20:28;13.23;;;6.40;;
75608;SDS011;64194;51.044;13.780;2022-12-26T03:24:33;11.15;;;6.18;;
75608;SDS011;64194;51.044;13.780;2022-12-26T03:28:55;11.55;;;5.43;;
75608;SDS011;64194;51.044;13.780;2022-12-26T03:33:24;11.48;;;5.03;;
75608;SDS011;64194;51.044;13.780;2022-12-26T03:37:50;11.25;;;5.18;;
75608;SDS011;64194;51.044;13.780;2022-12-26T03:41:58;8.93;;;4.80;;
75608;SDS011;64194;51.044;13.780;2022-12-26T03:51:14;8.23;;;4.75;;
75608;SDS011;64194;51.044;13.780;2022-12-26T03:56:06;8.82;;;4.28;;
75608;SDS011;64194;51.044;13.780;2022-12-26T04:00:27;11.95;;;4.90;;
75608;SDS011;64194;51.044;13.780;2022-12-26T04:04:51;9.55;;;5.22;;
75608;SDS011;64194;51.044;13.780;2022-12-26T04:09:23;11.38;;;4.82;;
75608;SDS011;64194;51.044;13.780;2022-12-26T04:13:55;9.20;;;4.90;;
75608;SDS011;64194;51.044;13.780;2022-12-26T04:18:20;10.30;;;4.50;;
75608;SDS011;64194;51.044;13.780;2022-12-26T04:23:17;10.77;;;5.40;;
75608;SDS011;64194;51.044;13.780;2022-12-26T04:27:34;9.35;;;4.47;;
75608;SDS011;64194;51.044;13.780;2022-12-26T04:32:07;9.85;;;4.70;;
75608;SDS011;64194;51.044;13.780;2022-12-26T04:36:33;8.85;;;4.55;;
75608;SDS011;64194;51.044;13.780;2022-12-26T04:40:58;11.18;;;4.82;;
75608;SDS011;64194;51.044;13.780;2022-12-26T04:45:21;9.23;;;4.13;;
75608;SDS011;64194;51.044;13.780;2022-12-26T04:49:23;7.88;;;4.00;;
75608;SDS011;64194;51.044;13.780;2022-12-26T04:53:43;8.63;;;3.40;;
75608;SDS011;64194;51.044;13.780;2022-12-26T04:57:46;7.97;;;3.35;;
75608;SDS011;64194;51.044;13.780;2022-12-26T05:01:48;7.38;;;3.45;;
75608;SDS011;64194;51.044;13.780;2022-12-26T05:06:08;4.45;;;1.63;;
75608;SDS011;64194;51.044;13.780;2022-12-26T05:10:36;3.70;;;1.60;;
75608;SDS011;64194;51.044;13.780;2022-12-26T05:14:38;3.92;;;1.75;;
75608;SDS011;64194;51.044;13.780;2022-12-26T05:18:40;4.82;;;2.22;;
75608;SDS011;64194;51.044;13.780;2022-12-26T05:23:00;3.42;;;1.40;;
75608;SDS011;64194;51.044;13.780;2022-12-26T05:27:21;4.13;;;1.42;;
75608;SDS011;64194;51.044;13.780;2022-12-26T05:31:42;6.30;;;1.60;;
75608;SDS011;64194;51.044;13.780;2022-12-26T05:35:44;3.72;;;1.23;;
75608;SDS011;64194;51.044;13.780;2022-12-26T05:39:46;4.40;;;1.70;;
75608;SDS011;64194;51.044;13.780;2022-12-26T05:43:47;3.42;;;1.38;;
75608;SDS011;64194;51.044;13.780;2022-12-26T05:47:49;4.40;;;1.70;;
75608;SDS011;64194;51.044;13.780;2022-12-26T05:51:52;4.45;;;1.95;;
75608;SDS011;64194;51.044;13.780;2022-12-26T05:55:54;4.15;;;1.67;;
75608;SDS011;64194;51.044;13.780;2022-12-26T05:59:55;4.03;;;1.50;;
75608;SDS011;64194;51.044;13.780;2022-12-26T06:03:58;4.32;;;1.67;;
75608;SDS011;64194;51.044;13.780;2022-12-26T06:08:00;4.70;;;1.58;;
75608;SDS011;64194;51.044;13.780;2022-12-26T06:12:02;5.22;;;1.88;;
75608;SDS011;64194;51.044;13.780;2022-12-26T06:16:04;4.20;;;1.63;;
75608;SDS011;64194;51.044;13.780;2022-12-26T06:20:07;4.40;;;1.88;;
75608;SDS011;64194;51.044;13.780;2022-12-26T06:24:09;4.63;;;1.70;;
75608;SDS011;64194;51.044;13.780;2022-12-26T06:28:10;3.97;;;1.60;;
75608;SDS011;64194;51.044;13.780;2022-12-26T06:32:12;5.10;;;2.22;;
75608;SDS011;64194;51.044;13.780;2022-12-26T06:36:15;4.47;;;1.73;;
75608;SDS011;64194;51.044;13.780;2022-12-26T06:40:18;3.85;;;1.90;;
75608;SDS011;64194;51.044;13.780;2022-12-26T06:44:20;5.38;;;1.60;;
75608;SDS011;64194;51.044;13.780;2022-12-26T06:48:21;4.38;;;2.03;;
75608;SDS011;64194;51.044;13.780;2022-12-26T06:52:23;6.90;;;1.80;;
75608;SDS011;64194;51.044;13.780;2022-12-26T06:56:25;4.85;;;1.88;;
75608;SDS011;64194;51.044;13.780;2022-12-26T07:00:27;4.63;;;2.10;;
75608;SDS011;64194;51.044;13.780;2022-12-26T07:04:30;6.55;;;2.05;;
75608;SDS011;64194;51.044;13.780;2022-12-26T07:08:32;5.97;;;1.80;;
75608;SDS011;64194;51.044;13.780;2022-12-26T07:12:35;4.65;;;2.05;;
75608;SDS011;64194;51.044;13.780;2022-12-26T07:16:37;4.05;;;1.85;;
75608;SDS011;64194;51.044;13.780;2022-12-26T07:20:40;3.78;;;1.73;;
75608;SDS011;64194;51.044;13.780;2022-12-26T07:24:42;5.45;;;1.83;;
75608;SDS011;64194;51.044;13.780;2022-12-26T07:28:43;3.53;;;1.50;;
75608;SDS011;64194;51.044;13.780;2022-12-26T07:32:45;3.65;;;1.50;;
75608;SDS011;64194;51.044;13.780;2022-12-26T07:36:47;4.22;;;1.63;;
75608;SDS011;64194;51.044;13.780;2022-12-26T07:40:48;4.43;;;1.70;;
75608;SDS011;64194;51.044;13.780;2022-12-26T07:44:51;3.90;;;1.60;;
75608;SDS011;64194;51.044;13.780;2022-12-26T07:48:53;4.05;;;1.98;;
75608;SDS011;64194;51.044;13.780;2022-12-26T07:52:54;5.15;;;1.88;;
75608;SDS011;64194;51.044;13.780;2022-12-26T07:56:56;3.80;;;1.60;;
75608;SDS011;64194;51.044;13.780;2022-12-26T08:01:18;4.13;;;1.90;;
75608;SDS011;64194;51.044;13.780;2022-12-26T08:05:20;6.07;;;1.83;;
75608;SDS011;64194;51.044;13.780;2022-12-26T08:09:22;3.95;;;1.80;;
75608;SDS011;64194;51.044;13.780;2022-12-26T08:13:24;3.47;;;1.70;;
75608;SDS011;64194;51.044;13.780;2022-12-26T08:17:25;5.13;;;2.50;;
75608;SDS011;64194;51.044;13.780;2022-12-26T08:21:27;4.30;;;1.83;;
75608;SDS011;64194;51.044;13.780;2022-12-26T08:25:28;4.68;;;1.90;;
75608;SDS011;64194;51.044;13.780;2022-12-26T08:29:30;3.72;;;1.65;;
75608;SDS011;64194;51.044;13.780;2022-12-26T08:33:32;4.30;;;1.30;;
75608;SDS011;64194;51.044;13.780;2022-12-26T08:37:34;4.20;;;1.70;;
75608;SDS011;64194;51.044;13.780;2022-12-26T08:41:35;4.18;;;1.70;;
75608;SDS011;64194;51.044;13.780;2022-12-26T08:45:37;4.95;;;1.90;;
75608;SDS011;64194;51.044;13.780;2022-12-26T08:49:39;3.70;;;1.73;;
75608;SDS011;64194;51.044;13.780;2022-12-26T08:53:42;2.97;;;1.35;;
75608;SDS011;64194;51.044;13.780;2022-12-26T08:57:43;6.38;;;1.70;;
75608;SDS011;64194;51.044;13.780;2022-12-26T09:01:45;3.85;;;1.38;;
75608;SDS011;64194;51.044;13.780;2022-12-26T09:05:47;3.47;;;1.33;;
75608;SDS011;64194;51.044;13.780;2022-12-26T09:09:49;4.97;;;1.83;;
75608;SDS011;64194;51.044;13.780;2022-12-26T09:13:52;4.35;;;1.90;;
75608;SDS011;64194;51.044;13.780;2022-12-26T09:17:55;4.22;;;1.73;;
75608;SDS011;64194;51.044;13.780;2022-12-26T09:21:56;4.95;;;2.28;;
75608;SDS011;64194;51.044;13.780;2022-12-26T09:26:18;6.53;;;1.88;;
75608;SDS011;64194;51.044;13.780;2022-12-26T09:30:21;4.15;;;1.70;;
75608;SDS011;64194;51.044;13.780;2022-12-26T09:34:23;3.20;;;1.30;;
75608;SDS011;64194;51.044;13.780;2022-12-26T09:38:25;4.22;;;1.60;;
75608;SDS011;64194;51.044;13.780;2022-12-26T09:50:40;5.03;;;1.77;;
75608;SDS011;64194;51.044;13.780;2022-12-26T09:54:46;4.13;;;1.55;;
75608;SDS011;64194;51.044;13.780;2022-12-26T09:58:57;4.53;;;1.45;;
75608;SDS011;64194;51.044;13.780;2022-12-26T10:03:02;4.63;;;1.50;;
75608;SDS011;64194;51.044;13.780;2022-12-26T10:07:09;3.78;;;1.45;;
75608;SDS011;64194;51.044;13.780;2022-12-26T10:11:33;4.32;;;1.90;;
75608;SDS011;64194;51.044;13.780;2022-12-26T10:15:57;4.13;;;1.50;;
75608;SDS011;64194;51.044;13.780;2022-12-26T10:24:38;3.83;;;1.63;;
75608;SDS011;64194;51.044;13.780;2022-12-26T10:28:50;4.38;;;1.65;;
75608;SDS011;64194;51.044;13.780;2022-12-26T10:32:58;4.88;;;1.50;;
75608;SDS011;64194;51.044;13.780;2022-12-26T10:41:34;4.78;;;1.55;;
75608;SDS011;64194;51.044;13.780;2022-12-26T10:45:58;4.28;;;1.60;;
75608;SDS011;64194;51.044;13.780;2022-12-26T10:50:22;4.03;;;1.70;;
75608;SDS011;64194;51.044;13.780;2022-12-26T10:54:28;3.88;;;1.52;;
75608;SDS011;64194;51.044;13.780;2022-12-26T10:58:31;3.45;;;1.38;;
75608;SDS011;64194;51.044;13.780;2022-12-26T11:02:36;3.83;;;1.55;;
75608;SDS011;64194;51.044;13.780;2022-12-26T11:06:38;4.65;;;1.30;;
75608;SDS011;64194;51.044;13.780;2022-12-26T11:10:42;4.03;;;1.52;;
75608;SDS011;64194;51.044;13.780;2022-12-26T11:14:58;3.75;;;1.52;;
75608;SDS011;64194;51.044;13.780;2022-12-26T11:19:04;4.40;;;1.67;;
75608;SDS011;64194;51.044;13.780;2022-12-26T11:23:25;3.80;;;1.50;;
75608;SDS011;64194;51.044;13.780;2022-12-26T11:27:32;4.70;;;1.50;;
75608;SDS011;64194;51.044;13.780;2022-12-26T11:31:34;4.45;;;1.55;;
75608;SDS011;64194;51.044;13.780;2022-12-26T11:35:37;3.85;;;1.73;;
75608;SDS011;64194;51.044;13.780;2022-12-26T11:39:48;3.95;;;1.30;;
75608;SDS011;64194;51.044;13.780;2022-12-26T11:43:52;5.60;;;1.50;;
75608;SDS011;64194;51.044;13.780;2022-12-26T11:47:56;4.75;;;1.48;;
75608;SDS011;64194;51.044;13.780;2022-12-26T11:52:02;3.08;;;1.50;;
75608;SDS011;64194;51.044;13.780;2022-12-26T11:56:31;4.38;;;1.40;;
75608;SDS011;64194;51.044;13.780;2022-12-26T12:00:33;5.60;;;1.63;;
75608;SDS011;64194;51.044;13.780;2022-12-26T12:04:37;4.80;;;1.40;;
75608;SDS011;64194;51.044;13.780;2022-12-26T12:31:00;4.43;;;1.10;;
75608;SDS011;64194;51.044;13.780;2022-12-26T12:39:52;4.47;;;1.38;;
75608;SDS011;64194;51.044;13.780;2022-12-26T12:44:25;2.85;;;1.10;;
75608;SDS011;64194;51.044;13.780;2022-12-26T12:52:53;3.10;;;1.35;;
75608;SDS011;64194;51.044;13.780;2022-12-26T13:01:12;3.70;;;1.52;;
75608;SDS011;64194;51.044;13.780;2022-12-26T13:09:41;6.63;;;1.50;;
75608;SDS011;64194;51.044;13.780;2022-12-26T13:13:50;3.35;;;1.10;;
75608;SDS011;64194;51.044;13.780;2022-12-26T13:22:03;3.67;;;0.80;;
75608;SDS011;64194;51.044;13.780;2022-12-26T13:26:16;2.05;;;0.60;;
75608;SDS011;64194;51.044;13.780;2022-12-26T13:30:20;3.08;;;0.80;;
75608;SDS011;64194;51.044;13.780;2022-12-26T13:34:29;2.88;;;0.82;;
75608;SDS011;64194;51.044;13.780;2022-12-26T13:43:06;2.33;;;0.82;;
75608;SDS011;64194;51.044;13.780;2022-12-26T13:47:35;3.55;;;0.65;;
75608;SDS011;64194;51.044;13.780;2022-12-26T13:55:46;4.55;;;0.75;;
75608;SDS011;64194;51.044;13.780;2022-12-26T13:59:52;1.83;;;0.60;;
75608;SDS011;64194;51.044;13.780;2022-12-26T14:04:06;3.92;;;0.60;;
75608;SDS011;64194;51.044;13.780;2022-12-26T14:08:42;2.70;;;0.80;;
75608;SDS011;64194;51.044;13.780;2022-12-26T14:21:56;3.85;;;1.30;;
75608;SDS011;64194;51.044;13.780;2022-12-26T14:30:27;4.07;;;1.42;;
75608;SDS011;64194;51.044;13.780;2022-12-26T14:38:55;3.90;;;1.25;;
75608;SDS011;64194;51.044;13.780;2022-12-26T14:47:34;4.07;;;0.90;;
75608;SDS011;64194;51.044;13.780;2022-12-26T14:51:38;2.20;;;0.90;;
75608;SDS011;64194;51.044;13.780;2022-12-26T14:55:48;3.25;;;0.85;;
75608;SDS011;64194;51.044;13.780;2022-12-26T15:00:12;2.67;;;0.90;;
75608;SDS011;64194;51.044;13.780;2022-12-26T15:04:36;2.15;;;0.80;;
75608;SDS011;64194;51.044;13.780;2022-12-26T15:14:25;3.25;;;1.15;;
75608;SDS011;64194;51.044;13.780;2022-12-26T15:18:09;2.72;;;0.80;;
75608;SDS011;64194;51.044;13.780;2022-12-26T15:27:00;2.47;;;0.98;;
75608;SDS011;64194;51.044;13.780;2022-12-26T15:31:23;3.15;;;1.50;;
75608;SDS011;64194;51.044;13.780;2022-12-26T15:35:31;3.50;;;1.30;;
75608;SDS011;64194;51.044;13.780;2022-12-26T15:39:43;4.20;;;1.60;;
75608;SDS011;64194;51.044;13.780;2022-12-26T15:48:29;3.65;;;1.35;;
75608;SDS011;64194;51.044;13.780;2022-12-26T15:53:11;3.40;;;1.10;;
75608;SDS011;64194;51.044;13.780;2022-12-26T16:01:40;3.05;;;1.17;;
75608;SDS011;64194;51.044;13.780;2022-12-26T16:05:54;3.15;;;0.95;;
75608;SDS011;64194;51.044;13.780;2022-12-26T16:10:01;3.72;;;1.38;;
75608;SDS011;64194;51.044;13.780;2022-12-26T16:18:30;4.50;;;1.90;;
75608;SDS011;64194;51.044;13.780;2022-12-26T16:22:34;4.68;;;2.00;;
75608;SDS011;64194;51.044;13.780;2022-12-26T16:26:49;4.88;;;2.15;;
75608;SDS011;64194;51.044;13.780;2022-12-26T16:30:51;4.75;;;2.10;;
75608;SDS011;64194;51.044;13.780;2022-12-26T16:34:53;4.32;;;1.83;;
75608;SDS011;64194;51.044;13.780;2022-12-26T16:38:55;4.75;;;2.10;;
75608;SDS011;64194;51.044;13.780;2022-12-26T16:42:58;4.88;;;2.15;;
75608;SDS011;64194;51.044;13.780;2022-12-26T16:47:05;4.25;;;1.95;;
75608;SDS011;64194;51.044;13.780;2022-12-26T16:55:56;6.53;;;2.60;;
75608;SDS011;64194;51.044;13.780;2022-12-26T17:00:19;6.00;;;2.92;;
75608;SDS011;64194;51.044;13.780;2022-12-26T17:04:22;5.45;;;3.00;;
75608;SDS011;64194;51.044;13.780;2022-12-26T17:08:26;5.68;;;2.67;;
75608;SDS011;64194;51.044;13.780;2022-12-26T17:12:32;5.85;;;2.97;;
75608;SDS011;64194;51.044;13.780;2022-12-26T17:16:35;12.40;;;5.75;;
75608;SDS011;64194;51.044;13.780;2022-12-26T17:20:37;8.70;;;4.13;;
75608;SDS011;64194;51.044;13.780;2022-12-26T17:24:40;7.72;;;3.35;;
75608;SDS011;64194;51.044;13.780;2022-12-26T17:28:43;5.03;;;2.80;;
75608;SDS011;64194;51.044;13.780;2022-12-26T17:32:45;6.38;;;3.42;;
75608;SDS011;64194;51.044;13.780;2022-12-26T17:36:47;6.55;;;3.00;;
75608;SDS011;64194;51.044;13.780;2022-12-26T17:41:11;6.05;;;3.10;;
75608;SDS011;64194;51.044;13.780;2022-12-26T17:45:16;6.85;;;3.30;;
75608;SDS011;64194;51.044;13.780;2022-12-26T17:49:19;6.88;;;3.80;;
75608;SDS011;64194;51.044;13.780;2022-12-26T17:53:31;6.13;;;3.58;;
75608;SDS011;64194;51.044;13.780;2022-12-26T17:57:44;6.60;;;3.60;;
75608;SDS011;64194;51.044;13.780;2022-12-26T18:01:45;7.35;;;3.90;;
75608;SDS011;64194;51.044;13.780;2022-12-26T18:05:47;5.45;;;2.60;;
75608;SDS011;64194;51.044;13.780;2022-12-26T18:09:49;4.93;;;2.03;;
75608;SDS011;64194;51.044;13.780;2022-12-26T18:13:51;6.75;;;3.13;;
75608;SDS011;64194;51.044;13.780;2022-12-26T18:17:53;5.18;;;2.40;;
75608;SDS011;64194;51.044;13.780;2022-12-26T18:21:54;5.97;;;2.60;;
75608;SDS011;64194;51.044;13.780;2022-12-26T18:25:58;5.45;;;2.45;;
75608;SDS011;64194;51.044;13.780;2022-12-26T18:30:01;7.60;;;3.47;;
75608;SDS011;64194;51.044;13.780;2022-12-26T18:34:02;6.22;;;2.33;;
75608;SDS011;64194;51.044;13.780;2022-12-26T18:38:04;3.72;;;1.45;;
75608;SDS011;64194;51.044;13.780;2022-12-26T18:42:10;3.50;;;1.50;;
75608;SDS011;64194;51.044;13.780;2022-12-26T18:46:20;3.08;;;1.25;;
75608;SDS011;64194;51.044;13.780;2022-12-26T18:50:23;4.15;;;1.30;;
75608;SDS011;64194;51.044;13.780;2022-12-26T18:54:25;3.97;;;1.23;;
75608;SDS011;64194;51.044;13.780;2022-12-26T18:58:27;3.38;;;1.20;;
75608;SDS011;64194;51.044;13.780;2022-12-26T19:02:28;2.33;;;0.98;;
75608;SDS011;64194;51.044;13.780;2022-12-26T19:06:30;2.72;;;0.88;;
75608;SDS011;64194;51.044;13.780;2022-12-26T19:10:35;2.60;;;0.80;;
75608;SDS011;64194;51.044;13.780;2022-12-26T19:14:37;2.90;;;0.70;;
75608;SDS011;64194;51.044;13.780;2022-12-26T19:18:39;1.05;;;0.60;;
75608;SDS011;64194;51.044;13.780;2022-12-26T19:22:40;2.05;;;0.90;;
75608;SDS011;64194;51.044;13.780;2022-12-26T19:26:42;2.50;;;0.88;;
75608;SDS011;64194;51.044;13.780;2022-12-26T19:30:43;1.55;;;0.65;;
75608;SDS011;64194;51.044;13.780;2022-12-26T19:34:45;2.15;;;0.70;;
75608;SDS011;64194;51.044;13.780;2022-12-26T19:38:47;2.72;;;0.95;;
75608;SDS011;64194;51.044;13.780;2022-12-26T19:42:48;3.13;;;0.80;;
75608;SDS011;64194;51.044;13.780;2022-12-26T19:46:50;2.83;;;0.70;;
75608;SDS011;64194;51.044;13.780;2022-12-26T19:51:12;2.50;;;0.80;;
75608;SDS011;64194;51.044;13.780;2022-12-26T19:55:15;1.70;;;0.55;;
75608;SDS011;64194;51.044;13.780;2022-12-26T19:59:17;1.65;;;0.70;;
75608;SDS011;64194;51.044;13.780;2022-12-26T20:03:18;1.88;;;0.55;;
75608;SDS011;64194;51.044;13.780;2022-12-26T20:07:20;3.63;;;0.80;;
75608;SDS011;64194;51.044;13.780;2022-12-26T20:11:23;1.95;;;0.50;;
75608;SDS011;64194;51.044;13.780;2022-12-26T20:15:30;1.73;;;0.70;;
75608;SDS011;64194;51.044;13.780;2022-12-26T20:19:33;3.70;;;0.80;;
75608;SDS011;64194;51.044;13.780;2022-12-26T20:23:35;2.33;;;0.63;;
75608;SDS011;64194;51.044;13.780;2022-12-26T20:27:38;2.08;;;0.50;;
75608;SDS011;64194;51.044;13.780;2022-12-26T20:31:41;1.75;;;0.70;;
75608;SDS011;64194;51.044;13.780;2022-12-26T20:35:43;1.63;;;0.60;;
75608;SDS011;64194;51.044;13.780;2022-12-26T20:39:44;2.05;;;0.63;;
75608;SDS011;64194;51.044;13.780;2022-12-26T20:43:46;1.02;;;0.43;;
75608;SDS011;64194;51.044;13.780;2022-12-26T20:47:49;1.75;;;0.68;;
75608;SDS011;64194;51.044;13.780;2022-12-26T20:51:51;1.70;;;0.70;;
75608;SDS011;64194;51.044;13.780;2022-12-26T20:55:53;2.92;;;0.80;;
75608;SDS011;64194;51.044;13.780;2022-12-26T20:59:57;2.50;;;0.85;;
75608;SDS011;64194;51.044;13.780;2022-12-26T21:03:59;1.55;;;0.70;;
75608;SDS011;64194;51.044;13.780;2022-12-26T21:08:02;2.67;;;0.90;;
75608;SDS011;64194;51.044;13.780;2022-12-26T21:12:04;2.45;;;0.60;;
75608;SDS011;64194;51.044;13.780;2022-12-26T21:20:10;3.10;;;1.23;;
75608;SDS011;64194;51.044;13.780;2022-12-26T21:24:13;3.33;;;1.70;;
75608;SDS011;64194;51.044;13.780;2022-12-26T21:28:20;3.70;;;1.30;;
75608;SDS011;64194;51.044;13.780;2022-12-26T21:32:22;4.32;;;1.58;;
75608;SDS011;64194;51.044;13.780;2022-12-26T21:36:24;3.72;;;1.83;;
75608;SDS011;64194;51.044;13.780;2022-12-26T21:40:26;3.92;;;1.55;;
75608;SDS011;64194;51.044;13.780;2022-12-26T21:44:28;4.38;;;1.67;;
75608;SDS011;64194;51.044;13.780;2022-12-26T21:48:29;5.07;;;1.52;;
75608;SDS011;64194;51.044;13.780;2022-12-26T21:52:31;4.20;;;1.58;;
75608;SDS011;64194;51.044;13.780;2022-12-26T21:56:33;3.90;;;1.45;;
75608;SDS011;64194;51.044;13.780;2022-12-26T22:00:34;4.07;;;1.48;;
75608;SDS011;64194;51.044;13.780;2022-12-26T22:04:36;6.85;;;1.20;;
75608;SDS011;64194;51.044;13.780;2022-12-26T22:08:38;5.70;;;1.40;;
75608;SDS011;64194;51.044;13.780;2022-12-26T22:12:39;4.65;;;1.23;;
75608;SDS011;64194;51.044;13.780;2022-12-26T22:16:59;3.38;;;1.38;;
75608;SDS011;64194;51.044;13.780;2022-12-26T22:21:11;5.25;;;1.42;;
75608;SDS011;64194;51.044;13.780;2022-12-26T22:25:15;4.30;;;1.30;;
75608;SDS011;64194;51.044;13.780;2022-12-26T22:29:17;3.22;;;1.20;;
75608;SDS011;64194;51.044;13.780;2022-12-26T22:33:18;4.78;;;1.40;;
75608;SDS011;64194;51.044;13.780;2022-12-26T22:37:20;4.18;;;1.58;;
75608;SDS011;64194;51.044;13.780;2022-12-26T22:41:21;4.30;;;1.30;;
75608;SDS011;64194;51.044;13.780;2022-12-26T22:45:23;5.90;;;1.70;;
75608;SDS011;64194;51.044;13.780;2022-12-26T22:49:24;4.28;;;1.25;;
75608;SDS011;64194;51.044;13.780;2022-12-26T22:53:27;6.40;;;1.20;;
75608;SDS011;64194;51.044;13.780;2022-12-26T22:57:29;6.82;;;1.40;;
75608;SDS011;64194;51.044;13.780;2022-12-26T23:01:31;4.13;;;1.52;;
75608;SDS011;64194;51.044;13.780;2022-12-26T23:05:33;5.25;;;1.10;;
75608;SDS011;64194;51.044;13.780;2022-12-26T23:09:35;4.65;;;1.58;;
75608;SDS011;64194;51.044;13.780;2022-12-26T23:13:37;4.53;;;1.13;;
75608;SDS011;64194;51.044;13.780;2022-12-26T23:17:40;5.65;;;1.27;;
75608;SDS011;64194;51.044;13.780;2022-12-26T23:22:04;8.13;;;1.42;;
75608;SDS011;64194;51.044;13.780;2022-12-26T23:26:06;3.85;;;1.10;;
75608;SDS011;64194;51.044;13.780;2022-12-26T23:30:09;4.20;;;1.23;;
75608;SDS011;64194;51.044;13.780;2022-12-26T23:34:18;7.10;;;1.23;;
75608;SDS011;64194;51.044;13.780;2022-12-26T23:38:20;6.80;;;1.27;;
75608;SDS011;64194;51.044;13.780;2022-12-26T23:42:22;4.25;;;1.20;;
75608;SDS011;64194;51.044;13.780;2022-12-26T23:46:25;7.95;;;1.50;;
75608;SDS011;64194;51.044;13.780;2022-12-26T23:50:26;6.63;;;1.77;;
75608;SDS011;64194;51.044;13.780;2022-12-26T23:54:28;4.68;;;1.08;;
75608;SDS011;64194;51.044;13.780;2022-12-26T23:58:29;4.78;;;1.35;;
